sensor_id;sensor_type;location;lat;lon;timestamp;temperature;humidity
73438;DHT22;66471;56.532;21.020;2024-03-23T04:52:11;3.20;99.90
73438;DHT22;66471;56.532;21.020;2024-03-23T04:54:38;3.60;99.90
73438;DHT22;66471;56.532;21.020;2024-03-23T04:57:06;3.70;99.90
73438;DHT22;66471;56.532;21.020;2024-03-23T04:59:32;3.70;99.90
73438;DHT22;66471;56.532;21.020;2024-03-23T05:01:59;3.80;99.90
73438;DHT22;66471;56.532;21.020;2024-03-23T05:04:26;3.80;99.90
73438;DHT22;66471;56.532;21.020;2024-03-23T05:06:52;3.80;99.90
73438;DHT22;66471;56.532;21.020;2024-03-23T05:09:18;4.10;99.90
73438;DHT22;66471;56.532;21.020;2024-03-23T05:11:45;4.10;99.90
73438;DHT22;66471;56.532;21.020;2024-03-23T05:14:15;4.20;99.90
73438;DHT22;66471;56.532;21.020;2024-03-23T05:16:41;4.10;99.90
73438;DHT22;66471;56.532;21.020;2024-03-23T05:19:07;4.20;99.90
73438;DHT22;66471;56.532;21.020;2024-03-23T05:21:33;4.00;99.90
73438;DHT22;66471;56.532;21.020;2024-03-23T05:23:59;4.40;99.90
73438;DHT22;66471;56.532;21.020;2024-03-23T05:26:25;4.20;99.90
73438;DHT22;66471;56.532;21.020;2024-03-23T05:28:51;4.50;99.90
73438;DHT22;66471;56.532;21.020;2024-03-23T05:31:28;4.40;99.90
73438;DHT22;66471;56.532;21.020;2024-03-23T05:33:54;4.20;99.90
73438;DHT22;66471;56.532;21.020;2024-03-23T05:36:20;4.20;99.90
73438;DHT22;66471;56.532;21.020;2024-03-23T05:38:46;4.40;99.90
73438;DHT22;66471;56.532;21.020;2024-03-23T05:41:13;4.30;99.90
73438;DHT22;66471;56.532;21.020;2024-03-23T05:43:39;4.50;99.90
73438;DHT22;66471;56.532;21.020;2024-03-23T05:46:06;4.60;99.90
73438;DHT22;66471;56.532;21.020;2024-03-23T05:48:33;4.50;99.90
73438;DHT22;66471;56.532;21.020;2024-03-23T05:51:00;4.60;99.90
73438;DHT22;66471;56.532;21.020;2024-03-23T05:53:26;4.60;99.90
73438;DHT22;66471;56.532;21.020;2024-03-23T05:56:01;4.50;99.90
73438;DHT22;66471;56.532;21.020;2024-03-23T05:58:30;4.40;99.90
73438;DHT22;66471;56.532;21.020;2024-03-23T06:01:00;4.50;99.90
73438;DHT22;66471;56.532;21.020;2024-03-23T06:03:28;4.50;99.90
73438;DHT22;66471;56.532;21.020;2024-03-23T06:05:55;4.70;99.90
73438;DHT22;66471;56.532;21.020;2024-03-23T06:08:22;4.70;99.90
73438;DHT22;66471;56.532;21.020;2024-03-23T06:10:50;4.60;99.90
73438;DHT22;66471;56.532;21.020;2024-03-23T06:13:17;4.50;99.90
73438;DHT22;66471;56.532;21.020;2024-03-23T06:15:44;4.70;99.90
73438;DHT22;66471;56.532;21.020;2024-03-23T06:18:12;5.10;99.90
73438;DHT22;66471;56.532;21.020;2024-03-23T06:20:38;4.90;99.90
73438;DHT22;66471;56.532;21.020;2024-03-23T06:23:05;5.00;99.90
73438;DHT22;66471;56.532;21.020;2024-03-23T06:25:31;5.20;99.90
73438;DHT22;66471;56.532;21.020;2024-03-23T06:27:58;5.50;99.90
73438;DHT22;66471;56.532;21.020;2024-03-23T06:30:24;5.70;99.90
73438;DHT22;66471;56.532;21.020;2024-03-23T06:32:50;5.80;99.90
73438;DHT22;66471;56.532;21.020;2024-03-23T06:35:16;5.60;99.90
73438;DHT22;66471;56.532;21.020;2024-03-23T06:37:42;5.70;99.90
73438;DHT22;66471;56.532;21.020;2024-03-23T06:40:09;6.10;99.90
73438;DHT22;66471;56.532;21.020;2024-03-23T06:42:36;6.80;99.90
73438;DHT22;66471;56.532;21.020;2024-03-23T06:45:03;7.60;98.90
73438;DHT22;66471;56.532;21.020;2024-03-23T06:47:31;7.90;97.90
73438;DHT22;66471;56.532;21.020;2024-03-23T06:49:59;8.00;97.20
73438;DHT22;66471;56.532;21.020;2024-03-23T06:52:25;8.60;95.40
73438;DHT22;66471;56.532;21.020;2024-03-23T06:54:51;8.50;93.30
73438;DHT22;66471;56.532;21.020;2024-03-23T06:57:17;8.60;93.30
73438;DHT22;66471;56.532;21.020;2024-03-23T06:59:44;9.00;93.40
73438;DHT22;66471;56.532;21.020;2024-03-23T07:02:10;9.00;92.20
73438;DHT22;66471;56.532;21.020;2024-03-23T07:04:36;8.70;95.00
73438;DHT22;66471;56.532;21.020;2024-03-23T07:07:03;8.70;91.80
73438;DHT22;66471;56.532;21.020;2024-03-23T07:09:29;8.80;93.90
73438;DHT22;66471;56.532;21.020;2024-03-23T07:11:56;9.40;92.70
73438;DHT22;66471;56.532;21.020;2024-03-23T07:14:23;9.70;90.20
73438;DHT22;66471;56.532;21.020;2024-03-23T07:16:50;9.80;89.90
73438;DHT22;66471;56.532;21.020;2024-03-23T07:19:17;9.30;88.70
73438;DHT22;66471;56.532;21.020;2024-03-23T07:21:44;9.00;91.30
73438;DHT22;66471;56.532;21.020;2024-03-23T07:24:11;8.80;91.60
73438;DHT22;66471;56.532;21.020;2024-03-23T07:26:37;9.00;90.40
73438;DHT22;66471;56.532;21.020;2024-03-23T07:29:05;9.10;92.10
73438;DHT22;66471;56.532;21.020;2024-03-23T07:31:31;9.70;89.10
73438;DHT22;66471;56.532;21.020;2024-03-23T07:33:57;9.80;88.30
73438;DHT22;66471;56.532;21.020;2024-03-23T07:36:23;10.20;88.90
73438;DHT22;66471;56.532;21.020;2024-03-23T07:38:49;10.10;89.40
73438;DHT22;66471;56.532;21.020;2024-03-23T07:41:17;10.30;88.20
73438;DHT22;66471;56.532;21.020;2024-03-23T07:43:45;10.70;87.00
73438;DHT22;66471;56.532;21.020;2024-03-23T07:46:12;10.30;86.50
73438;DHT22;66471;56.532;21.020;2024-03-23T07:48:39;9.50;89.10
73438;DHT22;66471;56.532;21.020;2024-03-23T07:51:18;8.70;91.10
73438;DHT22;66471;56.532;21.020;2024-03-23T07:53:45;8.70;92.00
73438;DHT22;66471;56.532;21.020;2024-03-23T07:56:18;9.50;90.60
73438;DHT22;66471;56.532;21.020;2024-03-23T07:58:47;10.00;89.70
73438;DHT22;66471;56.532;21.020;2024-03-23T08:01:15;10.20;88.60
73438;DHT22;66471;56.532;21.020;2024-03-23T08:03:43;10.20;86.70
73438;DHT22;66471;56.532;21.020;2024-03-23T08:06:14;10.40;86.10
73438;DHT22;66471;56.532;21.020;2024-03-23T08:08:42;10.50;87.40
73438;DHT22;66471;56.532;21.020;2024-03-23T08:11:09;10.60;85.60
73438;DHT22;66471;56.532;21.020;2024-03-23T08:13:35;10.40;85.30
73438;DHT22;66471;56.532;21.020;2024-03-23T08:16:02;10.50;87.20
73438;DHT22;66471;56.532;21.020;2024-03-23T08:18:29;11.10;84.70
73438;DHT22;66471;56.532;21.020;2024-03-23T08:20:59;11.30;85.00
73438;DHT22;66471;56.532;21.020;2024-03-23T08:23:27;11.20;85.10
73438;DHT22;66471;56.532;21.020;2024-03-23T08:26:01;10.60;84.60
73438;DHT22;66471;56.532;21.020;2024-03-23T08:28:27;10.10;86.00
73438;DHT22;66471;56.532;21.020;2024-03-23T08:30:55;9.90;89.00
73438;DHT22;66471;56.532;21.020;2024-03-23T08:33:22;10.10;87.90
73438;DHT22;66471;56.532;21.020;2024-03-23T08:35:54;9.70;87.90
73438;DHT22;66471;56.532;21.020;2024-03-23T08:38:22;9.80;89.70
73438;DHT22;66471;56.532;21.020;2024-03-23T08:41:06;9.60;89.40
73438;DHT22;66471;56.532;21.020;2024-03-23T08:43:35;9.40;89.70
73438;DHT22;66471;56.532;21.020;2024-03-23T08:46:05;9.40;89.40
73438;DHT22;66471;56.532;21.020;2024-03-23T08:48:37;9.90;88.90
73438;DHT22;66471;56.532;21.020;2024-03-23T08:51:08;10.10;88.30
73438;DHT22;66471;56.532;21.020;2024-03-23T08:53:35;10.00;88.60
73438;DHT22;66471;56.532;21.020;2024-03-23T08:56:03;9.10;89.20
73438;DHT22;66471;56.532;21.020;2024-03-23T08:58:30;9.80;88.30
73438;DHT22;66471;56.532;21.020;2024-03-23T09:01:08;10.80;88.10
73438;DHT22;66471;56.532;21.020;2024-03-23T09:03:34;11.20;85.90
73438;DHT22;66471;56.532;21.020;2024-03-23T09:06:06;12.60;80.20
73438;DHT22;66471;56.532;21.020;2024-03-23T09:08:33;12.90;78.40
73438;DHT22;66471;56.532;21.020;2024-03-23T09:11:04;14.10;74.00
73438;DHT22;66471;56.532;21.020;2024-03-23T09:13:33;13.50;76.50
73438;DHT22;66471;56.532;21.020;2024-03-23T09:15:59;13.50;75.70
73438;DHT22;66471;56.532;21.020;2024-03-23T09:18:26;14.00;75.70
73438;DHT22;66471;56.532;21.020;2024-03-23T09:20:52;14.60;68.70
73438;DHT22;66471;56.532;21.020;2024-03-23T09:23:23;14.30;73.60
73438;DHT22;66471;56.532;21.020;2024-03-23T09:25:49;15.90;63.00
73438;DHT22;66471;56.532;21.020;2024-03-23T09:28:15;14.90;70.50
73438;DHT22;66471;56.532;21.020;2024-03-23T09:30:41;14.80;70.40
73438;DHT22;66471;56.532;21.020;2024-03-23T09:33:09;15.70;64.40
73438;DHT22;66471;56.532;21.020;2024-03-23T09:35:39;15.20;66.30
73438;DHT22;66471;56.532;21.020;2024-03-23T09:38:06;14.70;70.60
73438;DHT22;66471;56.532;21.020;2024-03-23T09:40:42;14.60;68.90
73438;DHT22;66471;56.532;21.020;2024-03-23T09:43:09;15.80;63.40
73438;DHT22;66471;56.532;21.020;2024-03-23T09:45:40;15.70;62.30
73438;DHT22;66471;56.532;21.020;2024-03-23T09:48:10;14.50;69.20
73438;DHT22;66471;56.532;21.020;2024-03-23T09:50:40;14.00;70.20
73438;DHT22;66471;56.532;21.020;2024-03-23T09:53:08;14.70;71.70
73438;DHT22;66471;56.532;21.020;2024-03-23T09:55:35;15.50;66.40
73438;DHT22;66471;56.532;21.020;2024-03-23T09:58:04;17.10;58.90
73438;DHT22;66471;56.532;21.020;2024-03-23T10:00:34;16.00;60.20
73438;DHT22;66471;56.532;21.020;2024-03-23T10:03:01;15.80;61.10
73438;DHT22;66471;56.532;21.020;2024-03-23T10:05:32;15.20;63.00
73438;DHT22;66471;56.532;21.020;2024-03-23T10:10:43;14.90;70.00
73438;DHT22;66471;56.532;21.020;2024-03-23T10:13:09;15.30;65.30
73438;DHT22;66471;56.532;21.020;2024-03-23T10:15:36;16.10;61.30
73438;DHT22;66471;56.532;21.020;2024-03-23T10:18:32;16.30;62.60
73438;DHT22;66471;56.532;21.020;2024-03-23T10:23:34;17.00;57.60
73438;DHT22;66471;56.532;21.020;2024-03-23T10:26:20;16.80;57.00
73438;DHT22;66471;56.532;21.020;2024-03-23T10:29:00;16.90;57.60
73438;DHT22;66471;56.532;21.020;2024-03-23T10:31:31;16.70;55.90
73438;DHT22;66471;56.532;21.020;2024-03-23T10:33:57;16.90;56.90
73438;DHT22;66471;56.532;21.020;2024-03-23T10:36:24;17.50;54.40
73438;DHT22;66471;56.532;21.020;2024-03-23T10:38:54;17.40;54.50
73438;DHT22;66471;56.532;21.020;2024-03-23T10:41:20;16.90;58.90
73438;DHT22;66471;56.532;21.020;2024-03-23T10:43:48;16.50;58.70
73438;DHT22;66471;56.532;21.020;2024-03-23T10:46:15;16.80;56.20
73438;DHT22;66471;56.532;21.020;2024-03-23T10:48:43;16.60;55.40
73438;DHT22;66471;56.532;21.020;2024-03-23T10:51:10;16.70;57.90
73438;DHT22;66471;56.532;21.020;2024-03-23T10:53:37;16.70;54.80
73438;DHT22;66471;56.532;21.020;2024-03-23T10:56:04;16.20;57.10
73438;DHT22;66471;56.532;21.020;2024-03-23T11:00:59;12.80;66.40
73438;DHT22;66471;56.532;21.020;2024-03-23T11:03:37;12.60;70.20
73438;DHT22;66471;56.532;21.020;2024-03-23T11:06:04;12.70;72.00
73438;DHT22;66471;56.532;21.020;2024-03-23T11:08:41;12.30;71.10
73438;DHT22;66471;56.532;21.020;2024-03-23T11:11:21;12.40;74.90
73438;DHT22;66471;56.532;21.020;2024-03-23T11:13:51;12.40;73.10
73438;DHT22;66471;56.532;21.020;2024-03-23T11:16:28;10.90;77.80
73438;DHT22;66471;56.532;21.020;2024-03-23T11:19:35;10.60;79.40
73438;DHT22;66471;56.532;21.020;2024-03-23T11:22:02;11.00;78.90
73438;DHT22;66471;56.532;21.020;2024-03-23T11:24:29;11.10;78.70
73438;DHT22;66471;56.532;21.020;2024-03-23T11:26:56;12.50;76.00
73438;DHT22;66471;56.532;21.020;2024-03-23T11:29:22;13.60;69.50
73438;DHT22;66471;56.532;21.020;2024-03-23T11:31:52;13.00;70.00
73438;DHT22;66471;56.532;21.020;2024-03-23T11:34:22;12.10;73.60
73438;DHT22;66471;56.532;21.020;2024-03-23T11:36:49;11.60;75.90
73438;DHT22;66471;56.532;21.020;2024-03-23T11:39:19;11.30;78.60
73438;DHT22;66471;56.532;21.020;2024-03-23T11:41:52;11.00;80.60
73438;DHT22;66471;56.532;21.020;2024-03-23T11:44:20;11.20;80.20
73438;DHT22;66471;56.532;21.020;2024-03-23T11:46:48;10.90;80.50
73438;DHT22;66471;56.532;21.020;2024-03-23T11:49:26;10.80;80.30
73438;DHT22;66471;56.532;21.020;2024-03-23T11:51:54;10.30;81.80
73438;DHT22;66471;56.532;21.020;2024-03-23T11:54:22;10.50;82.20
73438;DHT22;66471;56.532;21.020;2024-03-23T11:57:01;10.40;81.90
73438;DHT22;66471;56.532;21.020;2024-03-23T11:59:40;9.80;83.80
73438;DHT22;66471;56.532;21.020;2024-03-23T12:02:11;9.00;85.40
73438;DHT22;66471;56.532;21.020;2024-03-23T12:04:39;8.80;86.30
73438;DHT22;66471;56.532;21.020;2024-03-23T12:07:19;8.40;86.80
73438;DHT22;66471;56.532;21.020;2024-03-23T12:09:47;8.50;87.20
73438;DHT22;66471;56.532;21.020;2024-03-23T12:12:17;8.00;88.40
73438;DHT22;66471;56.532;21.020;2024-03-23T12:14:45;7.40;90.80
73438;DHT22;66471;56.532;21.020;2024-03-23T12:17:15;7.40;91.00
73438;DHT22;66471;56.532;21.020;2024-03-23T12:19:41;7.30;90.70
73438;DHT22;66471;56.532;21.020;2024-03-23T12:22:08;7.30;92.50
73438;DHT22;66471;56.532;21.020;2024-03-23T12:24:35;7.50;90.60
73438;DHT22;66471;56.532;21.020;2024-03-23T12:27:03;7.40;90.40
73438;DHT22;66471;56.532;21.020;2024-03-23T12:29:32;7.50;91.10
73438;DHT22;66471;56.532;21.020;2024-03-23T12:32:00;7.80;91.20
73438;DHT22;66471;56.532;21.020;2024-03-23T12:34:27;7.80;91.00
73438;DHT22;66471;56.532;21.020;2024-03-23T12:36:54;7.80;90.50
73438;DHT22;66471;56.532;21.020;2024-03-23T12:39:20;8.00;91.40
73438;DHT22;66471;56.532;21.020;2024-03-23T12:41:48;8.20;90.30
73438;DHT22;66471;56.532;21.020;2024-03-23T12:44:15;7.50;92.40
73438;DHT22;66471;56.532;21.020;2024-03-23T12:46:44;7.40;93.10
73438;DHT22;66471;56.532;21.020;2024-03-23T12:49:11;7.40;92.90
73438;DHT22;66471;56.532;21.020;2024-03-23T12:51:38;7.90;93.70
73438;DHT22;66471;56.532;21.020;2024-03-23T12:54:05;8.30;91.80
73438;DHT22;66471;56.532;21.020;2024-03-23T12:56:31;8.90;90.00
73438;DHT22;66471;56.532;21.020;2024-03-23T12:58:57;9.30;88.90
73438;DHT22;66471;56.532;21.020;2024-03-23T13:01:24;9.60;85.40
73438;DHT22;66471;56.532;21.020;2024-03-23T13:03:50;9.40;85.30
73438;DHT22;66471;56.532;21.020;2024-03-23T13:06:17;8.80;86.90
73438;DHT22;66471;56.532;21.020;2024-03-23T13:08:47;8.80;88.20
73438;DHT22;66471;56.532;21.020;2024-03-23T13:11:16;9.00;86.90
73438;DHT22;66471;56.532;21.020;2024-03-23T13:13:42;9.30;87.30
73438;DHT22;66471;56.532;21.020;2024-03-23T13:16:08;10.60;82.80
73438;DHT22;66471;56.532;21.020;2024-03-23T13:18:34;10.90;80.00
73438;DHT22;66471;56.532;21.020;2024-03-23T13:21:01;10.80;80.90
73438;DHT22;66471;56.532;21.020;2024-03-23T13:23:28;10.80;78.80
73438;DHT22;66471;56.532;21.020;2024-03-23T13:25:55;10.70;80.60
73438;DHT22;66471;56.532;21.020;2024-03-23T13:28:22;10.90;81.30
73438;DHT22;66471;56.532;21.020;2024-03-23T13:30:52;10.90;80.30
73438;DHT22;66471;56.532;21.020;2024-03-23T13:33:19;11.20;78.50
73438;DHT22;66471;56.532;21.020;2024-03-23T13:35:52;10.90;80.20
73438;DHT22;66471;56.532;21.020;2024-03-23T13:38:19;11.20;78.60
73438;DHT22;66471;56.532;21.020;2024-03-23T13:40:53;10.50;80.60
73438;DHT22;66471;56.532;21.020;2024-03-23T13:43:20;10.40;81.00
73438;DHT22;66471;56.532;21.020;2024-03-23T13:45:47;10.20;82.30
73438;DHT22;66471;56.532;21.020;2024-03-23T13:48:15;9.70;81.70
73438;DHT22;66471;56.532;21.020;2024-03-23T13:50:41;9.40;83.90
73438;DHT22;66471;56.532;21.020;2024-03-23T13:53:08;10.10;81.90
73438;DHT22;66471;56.532;21.020;2024-03-23T13:55:35;10.70;81.70
73438;DHT22;66471;56.532;21.020;2024-03-23T13:58:02;10.90;80.10
73438;DHT22;66471;56.532;21.020;2024-03-23T14:00:28;10.10;79.80
73438;DHT22;66471;56.532;21.020;2024-03-23T14:02:54;9.20;83.00
73438;DHT22;66471;56.532;21.020;2024-03-23T14:05:20;9.00;85.90
73438;DHT22;66471;56.532;21.020;2024-03-23T14:07:46;9.10;85.60
73438;DHT22;66471;56.532;21.020;2024-03-23T14:10:13;9.30;84.10
73438;DHT22;66471;56.532;21.020;2024-03-23T14:12:39;9.00;85.40
73438;DHT22;66471;56.532;21.020;2024-03-23T14:15:06;8.20;87.60
73438;DHT22;66471;56.532;21.020;2024-03-23T14:17:32;8.50;88.40
73438;DHT22;66471;56.532;21.020;2024-03-23T14:19:59;8.40;88.10
73438;DHT22;66471;56.532;21.020;2024-03-23T14:22:31;8.00;88.00
73438;DHT22;66471;56.532;21.020;2024-03-23T14:24:58;8.20;88.80
73438;DHT22;66471;56.532;21.020;2024-03-23T14:27:24;8.50;88.30
73438;DHT22;66471;56.532;21.020;2024-03-23T14:29:51;8.40;88.50
73438;DHT22;66471;56.532;21.020;2024-03-23T14:32:17;8.60;86.70
73438;DHT22;66471;56.532;21.020;2024-03-23T14:34:43;8.40;87.90
73438;DHT22;66471;56.532;21.020;2024-03-23T14:39:51;8.50;86.80
73438;DHT22;66471;56.532;21.020;2024-03-23T14:42:20;8.20;87.80
73438;DHT22;66471;56.532;21.020;2024-03-23T14:44:54;7.80;89.90
73438;DHT22;66471;56.532;21.020;2024-03-23T14:47:24;7.30;91.00
73438;DHT22;66471;56.532;21.020;2024-03-23T14:49:51;7.00;93.10
73438;DHT22;66471;56.532;21.020;2024-03-23T14:52:18;6.90;94.00
73438;DHT22;66471;56.532;21.020;2024-03-23T14:54:48;6.90;94.40
73438;DHT22;66471;56.532;21.020;2024-03-23T14:57:15;7.00;93.90
73438;DHT22;66471;56.532;21.020;2024-03-23T14:59:43;6.70;94.20
73438;DHT22;66471;56.532;21.020;2024-03-23T15:02:14;6.50;95.30
73438;DHT22;66471;56.532;21.020;2024-03-23T15:04:47;6.30;96.80
73438;DHT22;66471;56.532;21.020;2024-03-23T15:07:17;6.10;97.00
73438;DHT22;66471;56.532;21.020;2024-03-23T15:09:48;6.00;97.60
73438;DHT22;66471;56.532;21.020;2024-03-23T15:12:17;6.00;98.50
73438;DHT22;66471;56.532;21.020;2024-03-23T15:14:48;6.10;98.70
73438;DHT22;66471;56.532;21.020;2024-03-23T15:17:22;6.00;98.70
73438;DHT22;66471;56.532;21.020;2024-03-23T15:19:54;6.00;98.10
73438;DHT22;66471;56.532;21.020;2024-03-23T15:22:23;5.90;99.00
73438;DHT22;66471;56.532;21.020;2024-03-23T15:24:53;5.60;99.20
73438;DHT22;66471;56.532;21.020;2024-03-23T15:27:24;5.50;99.20
73438;DHT22;66471;56.532;21.020;2024-03-23T15:29:56;5.30;99.90
73438;DHT22;66471;56.532;21.020;2024-03-23T15:32:27;5.50;99.90
73438;DHT22;66471;56.532;21.020;2024-03-23T15:34:56;5.70;99.90
73438;DHT22;66471;56.532;21.020;2024-03-23T15:37:24;5.60;99.90
73438;DHT22;66471;56.532;21.020;2024-03-23T15:39:54;5.70;99.70
73438;DHT22;66471;56.532;21.020;2024-03-23T15:42:26;5.50;99.90
73438;DHT22;66471;56.532;21.020;2024-03-23T15:45:03;5.40;99.30
73438;DHT22;66471;56.532;21.020;2024-03-23T15:47:43;5.40;99.90
73438;DHT22;66471;56.532;21.020;2024-03-23T15:50:12;5.10;99.90
73438;DHT22;66471;56.532;21.020;2024-03-23T15:52:41;5.10;99.90
73438;DHT22;66471;56.532;21.020;2024-03-23T15:55:09;5.10;99.90
73438;DHT22;66471;56.532;21.020;2024-03-23T15:57:40;5.10;99.90
73438;DHT22;66471;56.532;21.020;2024-03-23T16:00:12;5.00;99.90
73438;DHT22;66471;56.532;21.020;2024-03-23T16:02:45;5.20;99.90
73438;DHT22;66471;56.532;21.020;2024-03-23T16:05:17;5.10;99.90
73438;DHT22;66471;56.532;21.020;2024-03-23T16:07:47;5.30;99.90
73438;DHT22;66471;56.532;21.020;2024-03-23T16:10:20;5.00;99.90
73438;DHT22;66471;56.532;21.020;2024-03-23T16:12:50;5.10;99.90
73438;DHT22;66471;56.532;21.020;2024-03-23T16:15:19;4.90;99.90
73438;DHT22;66471;56.532;21.020;2024-03-23T16:17:49;4.90;99.90
73438;DHT22;66471;56.532;21.020;2024-03-23T16:20:19;5.00;99.90
73438;DHT22;66471;56.532;21.020;2024-03-23T16:22:48;4.80;99.90
73438;DHT22;66471;56.532;21.020;2024-03-23T16:25:18;4.70;99.90
73438;DHT22;66471;56.532;21.020;2024-03-23T16:27:46;4.70;99.90
73438;DHT22;66471;56.532;21.020;2024-03-23T16:30:15;4.90;99.90
73438;DHT22;66471;56.532;21.020;2024-03-23T16:32:51;4.50;99.90
73438;DHT22;66471;56.532;21.020;2024-03-23T16:35:19;4.70;99.90
73438;DHT22;66471;56.532;21.020;2024-03-23T16:37:55;4.40;99.90
